createdAt,value
2018-04-13T00:00:27.616Z,19.17
2018-04-13T00:02:55.165Z,18.70
2018-04-13T00:05:22.715Z,17.37
2018-04-13T00:07:50.280Z,17.13
2018-04-13T00:10:17.832Z,17.07
2018-04-13T00:12:45.407Z,18.17
2018-04-13T00:15:12.952Z,18.30
2018-04-13T00:17:40.553Z,18.70
2018-04-13T00:20:08.112Z,19.17
2018-04-13T00:22:35.712Z,19.93
2018-04-13T00:25:03.266Z,21.77
2018-04-13T00:27:30.845Z,22.00
2018-04-13T00:29:58.385Z,23.23
2018-04-13T00:32:25.922Z,25.43
2018-04-13T00:34:53.469Z,23.93
2018-04-13T00:37:21.078Z,24.37
2018-04-13T00:39:48.663Z,22.57
2018-04-13T00:42:16.273Z,22.40
2018-04-13T00:44:43.885Z,20.77
2018-04-13T00:47:11.446Z,20.93
2018-04-13T00:49:39.021Z,19.90
2018-04-13T00:52:06.610Z,19.13
2018-04-13T00:54:34.188Z,17.53
2018-04-13T00:57:01.748Z,16.90
2018-04-13T00:59:29.321Z,18.90
2018-04-13T01:01:56.893Z,17.13
2018-04-13T01:04:24.519Z,17.40
2018-04-13T01:06:52.086Z,17.20
2018-04-13T01:09:19.657Z,16.70
2018-04-13T01:11:47.194Z,17.77
2018-04-13T01:14:14.757Z,17.10
2018-04-13T01:16:42.344Z,18.70
2018-04-13T01:19:09.918Z,19.93
2018-04-13T01:21:37.478Z,19.63
2018-04-13T01:24:05.027Z,20.67
2018-04-13T01:26:32.585Z,21.37
2018-04-13T01:29:00.136Z,20.83
2018-04-13T01:31:27.710Z,21.20
2018-04-13T01:33:55.277Z,21.93
2018-04-13T01:36:22.833Z,22.40
2018-04-13T01:38:50.460Z,22.90
2018-04-13T01:41:18.022Z,24.37
2018-04-13T01:43:45.619Z,23.50
2018-04-13T01:46:13.217Z,25.63
2018-04-13T01:48:40.764Z,25.23
2018-04-13T01:51:08.340Z,24.93
2018-04-13T01:53:35.901Z,24.27
2018-04-13T01:56:03.449Z,25.17
2018-04-13T01:58:31.006Z,25.73
2018-04-13T02:00:58.572Z,27.13
2018-04-13T02:03:26.124Z,27.23
2018-04-13T02:05:53.734Z,26.47
2018-04-13T02:08:21.318Z,24.47
2018-04-13T02:10:48.860Z,23.50
2018-04-13T02:13:16.426Z,26.20
2018-04-13T02:15:43.988Z,25.30
2018-04-13T02:18:11.601Z,25.37
2018-04-13T02:20:39.145Z,25.97
2018-04-13T02:23:06.717Z,26.40
2018-04-13T02:25:34.300Z,28.03
2018-04-13T02:28:01.877Z,28.07
2018-04-13T02:30:29.444Z,29.17
2018-04-13T02:32:57.005Z,28.30
2018-04-13T02:35:24.553Z,26.40
2018-04-13T02:37:52.129Z,25.60
2018-04-13T02:40:19.688Z,25.60
2018-04-13T02:42:47.257Z,25.67
2018-04-13T02:45:14.794Z,27.20
2018-04-13T02:47:42.343Z,28.13
2018-04-13T02:50:09.888Z,27.43
2018-04-13T02:52:37.459Z,28.80
2018-04-13T02:55:05.037Z,29.03
2018-04-13T02:57:32.582Z,30.37
2018-04-13T03:00:00.164Z,29.33
2018-04-13T03:02:27.706Z,29.90
2018-04-13T03:04:55.249Z,30.30
2018-04-13T03:07:22.835Z,29.93
2018-04-13T03:09:50.413Z,30.50
2018-04-13T03:12:17.967Z,30.53
2018-04-13T03:14:45.522Z,30.30
2018-04-13T03:17:13.086Z,30.50
2018-04-13T03:19:40.630Z,32.63
2018-04-13T03:22:08.492Z,31.77
2018-04-13T03:24:36.076Z,31.90
2018-04-13T03:27:03.664Z,33.80
2018-04-13T03:29:31.244Z,36.53
2018-04-13T03:31:58.915Z,37.93
2018-04-13T03:34:26.494Z,38.57
2018-04-13T03:36:54.197Z,39.07
2018-04-13T03:39:21.820Z,38.70
2018-04-13T03:41:49.373Z,41.47
2018-04-13T03:44:16.956Z,39.60
2018-04-13T03:46:44.541Z,38.17
2018-04-13T03:49:12.085Z,37.50
2018-04-13T03:51:39.638Z,38.20
2018-04-13T03:54:07.218Z,38.37
2018-04-13T03:56:34.864Z,38.67
2018-04-13T03:59:02.672Z,36.57
2018-04-13T04:01:30.260Z,36.23
2018-04-13T04:03:57.818Z,36.17
2018-04-13T04:06:25.380Z,36.10
2018-04-13T04:08:53.254Z,36.80
2018-04-13T04:11:20.847Z,36.60
2018-04-13T04:13:48.399Z,36.50
2018-04-13T04:16:15.992Z,36.87
2018-04-13T04:18:43.549Z,34.83
2018-04-13T04:21:22.934Z,36.77
2018-04-13T04:24:02.168Z,37.17
2018-04-13T04:26:41.531Z,36.47
2018-04-13T04:29:09.109Z,38.70
2018-04-13T04:31:36.814Z,38.03
2018-04-13T04:34:04.406Z,40.00
2018-04-13T04:36:32.017Z,42.07
2018-04-13T04:38:59.655Z,40.63
2018-04-13T04:41:27.269Z,38.53
2018-04-13T04:43:54.909Z,39.93
2018-04-13T04:46:22.462Z,40.00
2018-04-13T04:48:50.029Z,39.37
2018-04-13T04:51:17.893Z,40.77
2018-04-13T04:53:45.495Z,38.40
2018-04-13T04:56:13.091Z,38.57
2018-04-13T04:58:40.734Z,39.27
2018-04-13T05:01:08.318Z,41.00
2018-04-13T05:03:36.024Z,41.50
2018-04-13T05:06:03.644Z,41.67
2018-04-13T05:08:31.271Z,40.77
2018-04-13T05:10:58.904Z,40.07
2018-04-13T05:13:26.629Z,41.50
2018-04-13T05:15:54.201Z,41.03
2018-04-13T05:18:21.804Z,40.73
2018-04-13T05:20:49.471Z,40.37
2018-04-13T05:23:17.065Z,40.90
2018-04-13T05:25:44.697Z,41.60
2018-04-13T05:28:12.448Z,42.80
2018-04-13T05:30:40.045Z,42.33
2018-04-13T05:33:07.758Z,43.90
2018-04-13T05:35:35.463Z,43.20
2018-04-13T05:38:03.247Z,44.27
2018-04-13T05:40:30.823Z,44.27
2018-04-13T05:42:58.555Z,44.00
2018-04-13T05:45:26.130Z,44.93
2018-04-13T05:47:53.858Z,42.60
2018-04-13T05:50:21.425Z,41.50
2018-04-13T05:52:49.000Z,40.87
2018-04-13T05:55:16.641Z,41.87
2018-04-13T05:57:44.407Z,40.67
2018-04-13T06:00:12.012Z,41.10
2018-04-13T06:02:39.614Z,40.70
2018-04-13T06:05:07.208Z,40.83
2018-04-13T06:07:34.786Z,43.77
2018-04-13T06:10:02.352Z,42.53
2018-04-13T06:12:29.938Z,42.93
2018-04-13T06:14:57.506Z,43.30
2018-04-13T06:17:25.139Z,43.40
2018-04-13T06:19:53.041Z,44.40
2018-04-13T06:22:20.658Z,44.13
2018-04-13T06:24:48.258Z,43.90
2018-04-13T06:27:16.061Z,46.13
2018-04-13T06:29:43.668Z,44.93
2018-04-13T06:32:11.389Z,44.13
2018-04-13T06:34:39.077Z,45.20
2018-04-13T06:37:06.685Z,45.30
2018-04-13T06:39:34.253Z,43.37
2018-04-13T06:42:01.851Z,47.93
2018-04-13T06:44:29.409Z,46.07
2018-04-13T06:46:58.274Z,49.53
2018-04-13T06:49:25.808Z,48.63
2018-04-13T06:51:53.419Z,52.87
2018-04-13T06:54:20.984Z,51.53
2018-04-13T06:56:48.567Z,52.03
2018-04-13T06:59:16.176Z,50.63
2018-04-13T07:01:43.863Z,50.13
2018-04-13T07:04:11.411Z,47.03
2018-04-13T07:06:39.024Z,47.40
2018-04-13T07:09:06.613Z,47.07
2018-04-13T07:11:34.253Z,48.50
2018-04-13T07:14:01.849Z,47.57
2018-04-13T07:16:29.439Z,44.47
2018-04-13T07:18:57.063Z,44.60
2018-04-13T07:21:24.606Z,43.20
2018-04-13T07:23:52.155Z,40.93
2018-04-13T07:26:19.698Z,39.50
2018-04-13T07:28:47.251Z,41.40
2018-04-13T07:31:14.941Z,37.47
2018-04-13T07:33:42.641Z,36.33
2018-04-13T07:36:10.723Z,34.70
2018-04-13T07:38:37.897Z,35.30
2018-04-13T07:41:05.485Z,35.43
2018-04-13T07:43:33.757Z,35.40
2018-04-13T07:46:00.760Z,36.07
2018-04-13T07:48:28.354Z,35.13
2018-04-13T07:50:56.402Z,33.13
2018-04-13T07:53:23.568Z,31.47
2018-04-13T07:55:51.119Z,31.03
2018-04-13T07:58:18.654Z,31.70
2018-04-13T08:00:46.378Z,32.50
2018-04-13T08:03:13.968Z,30.67
2018-04-13T08:05:41.613Z,30.10
2018-04-13T08:08:09.146Z,31.17
2018-04-13T08:10:36.836Z,30.83
2018-04-13T08:13:04.426Z,32.00
2018-04-13T08:15:32.070Z,31.97
2018-04-13T08:17:59.783Z,33.90
2018-04-13T08:20:27.376Z,32.30
2018-04-13T08:22:54.929Z,30.80
2018-04-13T08:25:23.694Z,29.60
2018-04-13T08:27:51.279Z,29.80
2018-04-13T08:30:18.951Z,26.90
2018-04-13T08:32:46.511Z,26.60
2018-04-13T08:35:14.068Z,26.60
2018-04-13T08:37:41.667Z,26.50
2018-04-13T08:40:09.209Z,24.80
2018-04-13T08:42:36.754Z,26.63
2018-04-13T08:45:04.337Z,25.27
2018-04-13T08:47:31.967Z,27.70
2018-04-13T08:49:59.535Z,26.47
2018-04-13T08:52:27.166Z,25.27
2018-04-13T08:54:54.757Z,25.17
2018-04-13T08:57:22.374Z,24.60
2018-04-13T08:59:49.993Z,23.53
2018-04-13T09:02:17.686Z,22.70
2018-04-13T09:04:45.572Z,22.47
2018-04-13T09:07:13.167Z,23.83
2018-04-13T09:09:42.077Z,23.83
2018-04-13T09:12:09.972Z,24.57
2018-04-13T09:14:40.813Z,22.37
2018-04-13T09:17:08.994Z,23.47
2018-04-13T09:19:36.650Z,22.93
2018-04-13T09:22:04.209Z,23.63
2018-04-13T09:24:32.068Z,22.13
2018-04-13T09:26:59.624Z,23.80
2018-04-13T09:29:27.221Z,22.80
2018-04-13T09:31:54.801Z,24.73
2018-04-13T09:34:22.527Z,23.03
2018-04-13T09:36:50.474Z,21.33
2018-04-13T09:39:18.022Z,21.83
2018-04-13T09:41:45.562Z,21.60
2018-04-13T09:44:13.119Z,22.70
2018-04-13T09:46:40.779Z,21.50
2018-04-13T09:49:08.323Z,22.87
2018-04-13T09:51:35.914Z,22.23
2018-04-13T09:54:03.495Z,22.83
2018-04-13T09:56:31.057Z,22.17
2018-04-13T09:58:58.687Z,22.97
2018-04-13T10:01:26.371Z,20.77
2018-04-13T10:04:08.842Z,18.10
2018-04-13T10:06:36.385Z,16.33
2018-04-13T10:09:03.957Z,16.30
2018-04-13T10:11:31.663Z,13.17
2018-04-13T10:13:59.427Z,12.67
2018-04-13T10:16:27.121Z,12.10
2018-04-13T10:18:54.886Z,11.67
2018-04-13T10:21:22.436Z,11.90
2018-04-13T10:23:50.183Z,12.23
2018-04-13T10:26:21.864Z,12.13
2018-04-13T10:28:49.636Z,11.80
2018-04-13T10:31:17.404Z,12.23
2018-04-13T10:33:45.166Z,11.30
2018-04-13T10:36:12.734Z,13.07
2018-04-13T10:38:40.328Z,10.20
2018-04-13T10:41:08.152Z,9.23
2018-04-13T10:43:36.081Z,9.30
2018-04-13T10:46:03.724Z,8.40
2018-04-13T10:48:31.516Z,9.27
2018-04-13T10:50:59.117Z,8.77
2018-04-13T10:53:26.673Z,8.17
2018-04-13T10:55:54.232Z,9.60
2018-04-13T10:58:21.792Z,9.00
2018-04-13T11:00:49.341Z,9.23
2018-04-13T11:03:16.915Z,9.43
2018-04-13T11:05:44.471Z,9.10
2018-04-13T11:08:12.032Z,9.30
2018-04-13T11:10:39.579Z,9.50
2018-04-13T11:13:07.257Z,9.70
2018-04-13T11:15:34.807Z,9.40
2018-04-13T11:18:02.380Z,10.93
2018-04-13T11:20:30.263Z,10.37
2018-04-13T11:22:58.122Z,9.53
2018-04-13T11:25:25.803Z,10.17
2018-04-13T11:27:53.362Z,9.67
2018-04-13T11:30:21.304Z,9.87
2018-04-13T11:32:48.850Z,9.23
2018-04-13T11:35:16.656Z,9.93
2018-04-13T11:37:44.400Z,10.67
2018-04-13T11:40:11.944Z,10.03
2018-04-13T11:42:39.524Z,11.43
2018-04-13T11:45:07.093Z,11.40
2018-04-13T11:47:34.661Z,10.60
2018-04-13T11:50:03.190Z,11.13
2018-04-13T11:52:30.856Z,10.93
2018-04-13T11:54:58.730Z,11.20
2018-04-13T11:57:26.285Z,10.30
2018-04-13T11:59:53.871Z,11.13
2018-04-13T12:02:21.430Z,10.27
2018-04-13T12:04:48.994Z,9.67
2018-04-13T12:07:16.556Z,10.17
2018-04-13T12:09:44.114Z,9.87
2018-04-13T12:12:11.777Z,9.60
2018-04-13T12:14:39.353Z,10.00
2018-04-13T12:17:06.894Z,9.33
2018-04-13T12:19:34.733Z,9.63
2018-04-13T12:22:02.282Z,8.57
2018-04-13T12:24:29.831Z,9.43
2018-04-13T12:26:57.725Z,10.03
2018-04-13T12:29:25.293Z,10.17
2018-04-13T12:31:52.849Z,10.67
2018-04-13T12:34:20.563Z,10.13
2018-04-13T12:36:48.129Z,9.70
2018-04-13T12:39:16.270Z,9.97
2018-04-13T12:41:43.832Z,10.07
2018-04-13T12:44:11.496Z,10.00
2018-04-13T12:46:39.084Z,9.57
2018-04-13T12:49:06.653Z,11.07
2018-04-13T12:51:34.210Z,11.27
2018-04-13T12:54:01.805Z,10.60
2018-04-13T12:56:29.345Z,11.17
2018-04-13T12:58:56.940Z,10.83
2018-04-13T13:01:24.502Z,11.60
2018-04-13T13:03:52.083Z,10.70
2018-04-13T13:06:19.681Z,11.03
2018-04-13T13:08:47.351Z,11.10
2018-04-13T13:11:14.889Z,11.13
2018-04-13T13:13:42.457Z,11.83
2018-04-13T13:16:10.010Z,10.90
2018-04-13T13:18:37.560Z,12.17
2018-04-13T13:21:05.131Z,11.67
2018-04-13T13:23:32.779Z,12.77
2018-04-13T13:26:00.347Z,11.97
2018-04-13T13:28:27.903Z,12.33
2018-04-13T13:30:55.461Z,11.70
2018-04-13T13:33:22.992Z,12.53
2018-04-13T13:35:50.572Z,11.60
2018-04-13T13:38:18.275Z,12.23
2018-04-13T13:40:45.860Z,12.10
2018-04-13T13:43:13.564Z,12.47
2018-04-13T13:45:41.240Z,12.50
2018-04-13T13:48:08.813Z,11.97
2018-04-13T13:50:36.352Z,11.70
2018-04-13T13:53:03.900Z,11.33
2018-04-13T13:55:31.498Z,11.67
2018-04-13T13:57:59.045Z,11.93
2018-04-13T14:00:26.628Z,11.33
2018-04-13T14:02:54.206Z,12.37
2018-04-13T14:05:21.961Z,11.60
2018-04-13T14:07:49.534Z,11.77
2018-04-13T14:10:17.087Z,11.20
2018-04-13T14:12:44.680Z,12.03
2018-04-13T14:15:12.237Z,12.27
2018-04-13T14:17:39.798Z,12.63
2018-04-13T14:20:07.367Z,11.63
2018-04-13T14:22:34.910Z,12.67
2018-04-13T14:25:02.478Z,13.13
2018-04-13T14:27:30.043Z,13.33
2018-04-13T14:29:57.585Z,13.83
2018-04-13T14:32:25.119Z,13.30
2018-04-13T14:34:52.682Z,12.67
2018-04-13T14:37:20.250Z,12.67
2018-04-13T14:39:47.797Z,12.43
2018-04-13T14:42:15.348Z,12.53
2018-04-13T14:44:42.928Z,12.97
2018-04-13T14:47:10.438Z,13.57
2018-04-13T14:49:38.003Z,12.73
2018-04-13T14:52:05.547Z,13.73
2018-04-13T14:54:33.109Z,12.37
2018-04-13T14:57:00.656Z,12.80
2018-04-13T14:59:28.246Z,12.80
2018-04-13T15:01:55.797Z,13.13
2018-04-13T15:04:23.423Z,13.67
2018-04-13T15:06:50.993Z,12.87
2018-04-13T15:09:18.543Z,12.70
2018-04-13T15:11:46.347Z,13.20
2018-04-13T15:14:13.933Z,13.53
2018-04-13T15:16:41.482Z,12.77
2018-04-13T15:19:09.068Z,13.27
2018-04-13T15:21:36.722Z,12.57
2018-04-13T15:24:04.306Z,13.37
2018-04-13T15:26:31.869Z,12.53
2018-04-13T15:28:59.740Z,12.70
2018-04-13T15:31:27.296Z,12.70
2018-04-13T15:33:54.865Z,13.20
2018-04-13T15:36:22.423Z,13.20
2018-04-13T15:38:50.004Z,13.00
2018-04-13T15:41:17.689Z,12.93
2018-04-13T15:43:45.253Z,13.20
2018-04-13T15:46:17.383Z,13.60
2018-04-13T15:48:45.432Z,14.77
2018-04-13T15:51:13.364Z,14.07
2018-04-13T15:53:41.147Z,14.53
2018-04-13T15:56:22.041Z,15.50
2018-04-13T15:58:50.483Z,16.27
2018-04-13T16:01:18.037Z,20.50
2018-04-13T16:03:46.001Z,24.50
2018-04-13T16:06:13.572Z,26.83
2018-04-13T16:08:41.194Z,28.93
2018-04-13T16:11:08.922Z,29.63
2018-04-13T16:13:36.520Z,31.30
2018-04-13T16:16:04.214Z,32.73
2018-04-13T16:18:31.774Z,31.83
2018-04-13T16:20:59.343Z,32.13
2018-04-13T16:23:26.895Z,33.80
2018-04-13T16:25:54.459Z,33.33
2018-04-13T16:28:22.022Z,36.40
2018-04-13T16:30:49.571Z,35.60
2018-04-13T16:33:17.171Z,36.80
2018-04-13T16:35:44.692Z,36.97
2018-04-13T16:38:12.292Z,36.57
2018-04-13T16:40:39.863Z,37.30
2018-04-13T16:43:07.670Z,38.37
2018-04-13T16:45:35.223Z,38.60
2018-04-13T16:48:02.787Z,38.33
2018-04-13T16:50:30.352Z,41.20
2018-04-13T16:52:57.884Z,44.60
2018-04-13T16:55:25.472Z,44.73
2018-04-13T16:57:53.041Z,48.83
2018-04-13T17:00:20.625Z,50.30
2018-04-13T17:02:48.682Z,52.37
2018-04-13T17:05:16.397Z,53.77
2018-04-13T17:07:43.977Z,55.33
2018-04-13T17:10:11.583Z,60.13
2018-04-13T17:12:39.220Z,63.33
2018-04-13T17:15:06.869Z,71.03
2018-04-13T17:17:34.513Z,70.13
2018-04-13T17:20:02.080Z,76.10
2018-04-13T17:22:30.072Z,74.57
2018-04-13T17:24:57.630Z,75.90
2018-04-13T17:27:25.420Z,78.03
2018-04-13T17:29:53.020Z,76.87
2018-04-13T17:32:20.610Z,75.30
2018-04-13T17:34:48.207Z,80.60
2018-04-13T17:37:15.818Z,77.47
2018-04-13T17:39:43.517Z,75.67
2018-04-13T17:42:11.515Z,75.77
2018-04-13T17:44:39.154Z,76.33
2018-04-13T17:47:06.719Z,81.00
2018-04-13T17:49:34.310Z,77.67
2018-04-13T17:52:02.281Z,85.40
2018-04-13T17:54:29.870Z,83.83
2018-04-13T17:56:57.561Z,81.10
2018-04-13T17:59:25.391Z,80.30
2018-04-13T18:01:52.962Z,71.80
2018-04-13T18:04:20.636Z,70.43
2018-04-13T18:06:48.405Z,68.93
2018-04-13T18:09:16.000Z,67.60
2018-04-13T18:11:43.649Z,65.97
2018-04-13T18:14:11.262Z,67.80
2018-04-13T18:16:38.951Z,65.33
2018-04-13T18:19:06.949Z,69.70
2018-04-13T18:21:34.581Z,70.87
2018-04-13T18:24:02.143Z,73.97
2018-04-13T18:26:29.762Z,73.57
2018-04-13T18:28:57.707Z,79.93
2018-04-13T18:31:25.299Z,82.03
2018-04-13T18:33:52.860Z,86.80
2018-04-13T18:36:20.704Z,91.57
2018-04-13T18:38:49.390Z,93.27
2018-04-13T18:41:17.854Z,97.30
2018-04-13T18:43:45.939Z,100.93
2018-04-13T18:46:13.577Z,102.83
2018-04-13T18:48:41.646Z,102.00
2018-04-13T18:51:09.248Z,100.80
2018-04-13T18:53:36.838Z,103.60
2018-04-13T18:56:04.675Z,103.73
2018-04-13T18:58:32.610Z,106.10
2018-04-13T19:01:00.225Z,106.40
2018-04-13T19:03:27.987Z,104.07
2018-04-13T19:05:55.584Z,102.17
2018-04-13T19:08:23.584Z,99.87
2018-04-13T19:10:51.196Z,96.80
2018-04-13T19:13:18.808Z,98.00
2018-04-13T19:15:46.396Z,92.17
2018-04-13T19:18:14.032Z,93.77
2018-04-13T19:20:43.230Z,88.60
2018-04-13T19:23:10.816Z,92.20
2018-04-13T19:25:38.825Z,87.70
2018-04-13T19:28:06.528Z,67.37
2018-04-13T19:30:34.125Z,57.43
2018-04-13T19:33:01.746Z,49.57
2018-04-13T19:35:29.381Z,46.03
2018-04-13T19:37:56.981Z,42.47
2018-04-13T19:40:24.744Z,37.83
2018-04-13T19:42:52.620Z,32.83
2018-04-13T19:45:20.265Z,31.37
2018-04-13T19:47:47.809Z,28.10
2018-04-13T19:50:15.382Z,27.97
2018-04-13T19:52:43.870Z,26.60
2018-04-13T19:55:11.400Z,26.53
2018-04-13T19:57:39.001Z,26.67
2018-04-13T20:00:06.658Z,26.97
2018-04-13T20:02:34.733Z,28.17
2018-04-13T20:05:02.526Z,28.47
2018-04-13T20:07:30.178Z,27.67
2018-04-13T20:09:57.789Z,26.50
2018-04-13T20:12:25.373Z,27.70
2018-04-13T20:14:52.909Z,27.93
2018-04-13T20:17:20.663Z,27.33
2018-04-13T20:19:48.578Z,26.87
2018-04-13T20:22:16.193Z,25.97
2018-04-13T20:24:43.852Z,23.63
2018-04-13T20:27:12.261Z,23.93
2018-04-13T20:29:39.920Z,25.23
2018-04-13T20:32:07.481Z,24.40
2018-04-13T20:34:35.171Z,25.20
2018-04-13T20:37:02.851Z,25.87
2018-04-13T20:39:30.410Z,24.40
2018-04-13T20:41:57.956Z,25.63
2018-04-13T20:44:25.538Z,25.93
2018-04-13T20:46:53.141Z,26.80
2018-04-13T20:49:20.819Z,25.77
2018-04-13T20:51:48.426Z,25.67
2018-04-13T20:54:16.068Z,26.97
2018-04-13T20:56:43.615Z,26.90
2018-04-13T20:59:11.378Z,25.10
2018-04-13T21:01:39.952Z,25.70
2018-04-13T21:04:07.517Z,24.67
2018-04-13T21:06:35.086Z,25.20
2018-04-13T21:09:02.684Z,26.17
2018-04-13T21:11:30.256Z,25.20
2018-04-13T21:13:57.864Z,25.97
2018-04-13T21:16:25.468Z,25.53
2018-04-13T21:18:53.034Z,27.43
2018-04-13T21:21:21.760Z,28.17
2018-04-13T21:23:49.393Z,29.33
2018-04-13T21:26:17.015Z,29.97
2018-04-13T21:28:44.585Z,32.73
2018-04-13T21:31:12.294Z,32.27
2018-04-13T21:33:39.866Z,34.30
2018-04-13T21:36:07.487Z,35.50
2018-04-13T21:38:35.089Z,38.77
2018-04-13T21:41:02.679Z,38.60
2018-04-13T21:43:30.467Z,40.73
2018-04-13T21:45:58.037Z,42.20
2018-04-13T21:48:25.662Z,42.37
2018-04-13T21:50:53.225Z,43.67
2018-04-13T21:53:20.800Z,42.90
2018-04-13T21:55:48.359Z,43.17
2018-04-13T21:58:16.131Z,42.60
2018-04-13T22:00:43.697Z,44.53
2018-04-13T22:03:11.941Z,45.73
2018-04-13T22:05:39.491Z,45.50
2018-04-13T22:08:07.279Z,45.73
2018-04-13T22:10:34.876Z,45.53
2018-04-13T22:13:14.227Z,48.77
2018-04-13T22:15:41.803Z,52.37
2018-04-13T22:18:09.368Z,49.90
2018-04-13T22:20:36.964Z,52.40
2018-04-13T22:23:04.592Z,54.20
2018-04-13T22:25:32.232Z,58.57
2018-04-13T22:27:59.830Z,58.73
2018-04-13T22:30:27.399Z,57.33
2018-04-13T22:32:54.958Z,53.43
2018-04-13T22:35:22.557Z,57.07
2018-04-13T22:37:50.148Z,59.77
2018-04-13T22:40:17.750Z,68.30
2018-04-13T22:42:45.301Z,69.30
2018-04-13T22:45:12.884Z,79.13
2018-04-13T22:47:40.460Z,78.33
2018-04-13T22:50:08.107Z,83.77
2018-04-13T22:52:35.658Z,81.70
2018-04-13T22:55:03.199Z,80.37
2018-04-13T22:57:30.793Z,82.33
2018-04-13T22:59:58.390Z,80.67
2018-04-13T23:02:25.969Z,83.70
2018-04-13T23:04:53.532Z,82.50
2018-04-13T23:07:23.477Z,82.40
2018-04-13T23:09:51.063Z,81.53
2018-04-13T23:12:18.688Z,82.57
2018-04-13T23:14:46.264Z,83.27
2018-04-13T23:17:13.823Z,83.80
2018-04-13T23:19:41.390Z,89.20
2018-04-13T23:22:08.982Z,87.63
2018-04-13T23:24:36.577Z,88.97
2018-04-13T23:27:04.147Z,89.33
2018-04-13T23:29:31.769Z,88.43
2018-04-13T23:31:59.348Z,83.67
2018-04-13T23:34:26.906Z,85.13
2018-04-13T23:36:54.494Z,86.57
2018-04-13T23:39:22.087Z,87.70
2018-04-13T23:41:49.653Z,83.53
2018-04-13T23:44:17.226Z,83.33
2018-04-13T23:46:44.805Z,82.60
2018-04-13T23:49:12.373Z,82.33
2018-04-13T23:51:39.955Z,74.17
2018-04-13T23:54:07.516Z,78.83
2018-04-13T23:56:35.113Z,75.90
2018-04-13T23:59:02.677Z,85.23
